createdAt,value
2023-03-12T00:00:27.991Z,13.10
2023-03-12T00:04:34.658Z,14.80
2023-03-12T00:08:39.080Z,11.27
2023-03-12T00:12:46.266Z,15.37
2023-03-12T00:16:49.572Z,10.80
2023-03-12T00:20:56.610Z,12.40
2023-03-12T00:24:59.755Z,13.90
2023-03-12T00:29:04.232Z,14.33
2023-03-12T00:33:07.821Z,14.93
2023-03-12T00:37:11.346Z,14.57
2023-03-12T00:41:16.161Z,12.60
2023-03-12T00:45:20.646Z,12.27
2023-03-12T00:49:23.688Z,13.53
2023-03-12T00:53:30.380Z,13.50
2023-03-12T00:57:33.485Z,11.20
2023-03-12T01:01:40.141Z,14.53
2023-03-12T01:05:45.010Z,12.83
2023-03-12T01:09:48.060Z,12.97
2023-03-12T01:13:51.121Z,12.00
2023-03-12T01:17:56.724Z,12.23
2023-03-12T01:22:04.184Z,10.53
2023-03-12T01:26:23.743Z,13.30
2023-03-12T01:30:26.810Z,11.23
2023-03-12T01:34:33.534Z,13.97
2023-03-12T01:38:36.639Z,14.67
2023-03-12T01:42:39.960Z,14.30
2023-03-12T01:46:46.052Z,14.43
2023-03-12T01:50:51.031Z,12.37
2023-03-12T01:55:04.042Z,12.77
2023-03-12T01:59:12.264Z,11.43
2023-03-12T02:03:16.015Z,14.60
2023-03-12T02:07:20.603Z,13.03
2023-03-12T02:11:23.610Z,13.83
2023-03-12T02:15:28.431Z,14.80
2023-03-12T02:19:45.691Z,13.40
2023-03-12T02:23:59.029Z,10.17
2023-03-12T02:28:05.684Z,13.07
2023-03-12T02:32:09.895Z,13.17
2023-03-12T02:36:14.971Z,16.37
2023-03-12T02:40:26.208Z,14.17
2023-03-12T02:44:33.439Z,13.00
2023-03-12T02:48:36.736Z,14.53
2023-03-12T02:52:40.286Z,13.43
2023-03-12T02:56:45.818Z,12.90
2023-03-12T03:00:50.521Z,13.60
2023-03-12T03:04:59.708Z,13.37
2023-03-12T03:09:06.723Z,14.30
2023-03-12T03:13:10.063Z,13.17
2023-03-12T03:17:14.467Z,16.03
2023-03-12T03:21:18.480Z,17.63
2023-03-12T03:25:23.702Z,15.27
2023-03-12T03:29:26.712Z,14.20
2023-03-12T03:33:33.694Z,10.20
2023-03-12T03:37:36.791Z,16.30
2023-03-12T03:41:39.898Z,11.83
2023-03-12T03:45:47.070Z,14.67
2023-03-12T03:49:55.330Z,20.17
2023-03-12T03:54:02.822Z,13.10
2023-03-12T03:58:07.771Z,16.67
2023-03-12T04:02:11.131Z,17.97
2023-03-12T04:06:16.646Z,14.77
2023-03-12T04:10:21.621Z,16.00
2023-03-12T04:14:27.314Z,17.07
2023-03-12T04:18:30.385Z,15.40
2023-03-12T04:22:34.855Z,16.70
2023-03-12T04:26:39.142Z,14.20
2023-03-12T04:30:42.159Z,17.90
2023-03-12T04:34:48.241Z,14.47
2023-03-12T04:38:52.655Z,10.93
2023-03-12T04:42:55.938Z,14.23
2023-03-12T04:46:59.057Z,16.13
2023-03-12T04:51:03.311Z,12.73
2023-03-12T04:55:09.370Z,16.23
2023-03-12T04:59:14.555Z,14.33
2023-03-12T05:03:20.713Z,15.17
2023-03-12T05:07:26.403Z,14.73
2023-03-12T05:11:32.622Z,17.07
2023-03-12T05:15:38.285Z,16.37
2023-03-12T05:19:41.301Z,14.73
2023-03-12T05:23:47.460Z,14.73
2023-03-12T05:27:51.901Z,16.67
2023-03-12T05:31:55.132Z,13.17
2023-03-12T05:36:02.032Z,13.27
2023-03-12T05:40:07.861Z,14.07
2023-03-12T05:44:16.134Z,14.43
2023-03-12T05:48:23.633Z,13.97
2023-03-12T05:52:26.764Z,11.17
2023-03-12T05:56:30.144Z,11.87
2023-03-12T06:00:39.254Z,11.80
2023-03-12T06:04:42.286Z,15.47
2023-03-12T06:08:45.347Z,13.13
2023-03-12T06:12:49.951Z,14.43
2023-03-12T06:16:56.849Z,15.87
2023-03-12T06:21:10.338Z,15.17
2023-03-12T06:25:13.425Z,11.37
2023-03-12T06:29:18.567Z,16.67
2023-03-12T06:33:23.237Z,17.37
2023-03-12T06:37:26.333Z,14.23
2023-03-12T06:41:32.473Z,18.20
2023-03-12T06:45:35.524Z,14.00
2023-03-12T06:49:42.519Z,15.40
2023-03-12T06:53:49.448Z,17.27
2023-03-12T06:57:52.461Z,20.50
2023-03-12T07:01:55.828Z,17.93
2023-03-12T07:06:01.690Z,13.63
2023-03-12T07:10:09.091Z,15.13
2023-03-12T07:14:12.153Z,15.27
2023-03-12T07:18:15.402Z,12.13
2023-03-12T07:22:22.284Z,14.37
2023-03-12T07:26:25.514Z,11.77
2023-03-12T07:30:28.789Z,9.63
2023-03-12T07:34:35.188Z,13.33
2023-03-12T07:38:42.727Z,10.27
2023-03-12T07:42:46.886Z,14.30
2023-03-12T07:46:50.167Z,15.43
2023-03-12T07:50:55.809Z,12.10
2023-03-12T07:55:00.325Z,10.93
2023-03-12T07:59:07.750Z,9.47
2023-03-12T08:03:13.654Z,10.60
2023-03-12T08:07:17.500Z,9.23
2023-03-12T08:11:26.185Z,12.90
2023-03-12T08:15:31.846Z,13.87
2023-03-12T08:19:35.132Z,10.17
2023-03-12T08:23:38.180Z,10.63
2023-03-12T08:27:46.005Z,10.80
2023-03-12T08:32:04.225Z,7.13
2023-03-12T08:36:11.618Z,7.77
2023-03-12T08:40:15.223Z,8.73
2023-03-12T08:44:22.936Z,8.83
2023-03-12T08:48:39.690Z,8.07
2023-03-12T08:52:42.941Z,6.53
2023-03-12T08:56:52.101Z,6.70
2023-03-12T09:00:58.596Z,4.47
2023-03-12T09:05:02.076Z,4.27
2023-03-12T09:09:06.069Z,3.97
2023-03-12T09:13:10.557Z,7.90
2023-03-12T09:17:15.029Z,3.97
2023-03-12T09:21:19.853Z,5.07
2023-03-12T09:25:23.775Z,7.03
2023-03-12T09:29:26.934Z,9.03
2023-03-12T09:33:36.285Z,2.57
2023-03-12T09:37:45.969Z,4.40
2023-03-12T09:41:50.142Z,4.13
2023-03-12T09:45:56.576Z,3.03
2023-03-12T09:50:09.202Z,4.27
2023-03-12T09:54:25.800Z,5.13
2023-03-12T09:58:39.591Z,7.10
2023-03-12T10:03:40.857Z,3.53
2023-03-12T10:07:53.514Z,4.87
2023-03-12T10:12:02.937Z,4.30
2023-03-12T10:16:16.242Z,4.90
2023-03-12T10:20:55.774Z,9.63
2023-03-12T10:25:12.661Z,7.93
2023-03-12T10:29:22.523Z,5.23
2023-03-12T10:33:32.178Z,8.70
2023-03-12T10:37:41.804Z,6.93
2023-03-12T10:41:48.066Z,9.37
2023-03-12T10:46:02.957Z,8.13
2023-03-12T10:50:21.191Z,11.57
2023-03-12T10:54:35.364Z,8.73
2023-03-12T10:58:44.386Z,6.73
2023-03-12T11:02:51.411Z,11.48
2023-03-12T11:07:25.021Z,7.20
2023-03-12T11:11:34.216Z,10.20
2023-03-12T11:15:50.675Z,8.43
2023-03-12T11:19:57.041Z,11.07
2023-03-12T11:24:11.758Z,13.87
2023-03-12T11:28:21.878Z,14.80
2023-03-12T11:32:32.415Z,14.23
2023-03-12T11:36:51.139Z,21.57
2023-03-12T11:41:07.252Z,26.33
2023-03-12T11:45:20.152Z,18.23
2023-03-12T11:49:39.696Z,12.60
2023-03-12T11:54:13.210Z,11.63
2023-03-12T11:58:31.703Z,11.67
2023-03-12T12:03:06.553Z,14.97
2023-03-12T12:07:20.931Z,11.27
2023-03-12T12:11:32.350Z,12.43
2023-03-12T12:15:44.707Z,13.13
2023-03-12T12:20:09.407Z,10.03
2023-03-12T12:24:30.562Z,8.27
2023-03-12T12:28:55.536Z,14.53
2023-03-12T12:33:26.448Z,113.77
2023-03-12T12:37:53.312Z,214.13
2023-03-12T12:42:07.100Z,36.10
2023-03-12T12:46:14.965Z,20.17
2023-03-12T12:50:31.434Z,14.03
2023-03-12T12:54:42.646Z,13.47
2023-03-12T12:59:07.729Z,14.30
2023-03-12T13:03:17.580Z,165.37
2023-03-12T13:07:35.534Z,248.43
2023-03-12T13:11:42.763Z,31.13
2023-03-12T13:15:49.420Z,20.33
2023-03-12T13:20:01.976Z,13.87
2023-03-12T13:24:19.667Z,12.80
2023-03-12T13:28:35.437Z,28.20
2023-03-12T13:33:14.183Z,16.80
2023-03-12T13:37:44.992Z,16.50
2023-03-12T13:41:54.224Z,17.43
2023-03-12T13:46:08.709Z,15.23
2023-03-12T13:50:16.565Z,16.63
2023-03-12T13:54:20.838Z,15.93
2023-03-12T13:58:29.522Z,32.97
2023-03-12T14:02:36.259Z,23.37
2023-03-12T14:07:04.660Z,11.13
2023-03-12T14:11:34.636Z,10.80
2023-03-12T14:15:47.445Z,11.90
2023-03-12T14:19:57.398Z,13.30
2023-03-12T14:24:05.054Z,11.93
2023-03-12T14:28:15.012Z,12.37
2023-03-12T14:32:21.807Z,14.33
2023-03-12T14:36:33.439Z,15.20
2023-03-12T14:40:46.170Z,12.80
2023-03-12T14:45:01.113Z,18.23
2023-03-12T14:49:04.231Z,17.13
2023-03-12T14:53:13.756Z,20.60
2023-03-12T14:57:24.658Z,22.30
2023-03-12T15:01:34.259Z,17.33
2023-03-12T15:05:40.291Z,14.18
2023-03-12T15:09:47.525Z,18.45
2023-03-12T15:13:57.315Z,18.87
2023-03-12T15:18:13.906Z,19.10
2023-03-12T15:22:20.823Z,19.10
2023-03-12T15:26:35.802Z,21.50
2023-03-12T15:30:44.254Z,20.25
2023-03-12T15:34:48.211Z,20.77
2023-03-12T15:38:56.753Z,20.73
2023-03-12T15:43:03.941Z,19.10
2023-03-12T15:47:20.446Z,21.73
2023-03-12T15:51:32.834Z,19.77
2023-03-12T15:55:37.071Z,22.40
2023-03-12T15:59:42.422Z,20.87
2023-03-12T16:03:47.341Z,22.10
2023-03-12T16:07:50.940Z,21.25
2023-03-12T16:11:56.598Z,23.08
2023-03-12T16:16:00.783Z,32.73
2023-03-12T16:20:11.424Z,21.83
2023-03-12T16:24:20.523Z,23.92
2023-03-12T16:28:25.065Z,20.42
2023-03-12T16:32:33.250Z,23.90
2023-03-12T16:36:43.328Z,24.98
2023-03-12T16:40:52.499Z,27.13
2023-03-12T16:44:59.303Z,25.00
2023-03-12T16:49:04.230Z,24.87
2023-03-12T16:53:12.714Z,18.92
2023-03-12T16:57:24.220Z,24.10
2023-03-12T17:01:29.452Z,18.00
2023-03-12T17:05:33.939Z,26.23
2023-03-12T17:09:38.417Z,17.60
2023-03-12T17:13:41.623Z,17.47
2023-03-12T17:17:45.052Z,17.25
2023-03-12T17:21:49.213Z,23.88
2023-03-12T17:25:53.682Z,21.52
2023-03-12T17:29:56.854Z,22.27
2023-03-12T17:34:03.389Z,22.92
2023-03-12T17:38:06.996Z,19.50
2023-03-12T17:42:12.617Z,33.43
2023-03-12T17:46:17.308Z,26.02
2023-03-12T17:50:23.457Z,23.17
2023-03-12T17:54:28.904Z,21.67
2023-03-12T17:58:33.340Z,25.15
2023-03-12T18:02:41.591Z,29.37
2023-03-12T18:06:44.893Z,25.90
2023-03-12T18:10:49.876Z,30.83
2023-03-12T18:14:54.355Z,35.73
2023-03-12T18:18:57.571Z,33.33
2023-03-12T18:23:02.134Z,42.25
2023-03-12T18:27:08.040Z,39.17
2023-03-12T18:31:14.941Z,54.50
2023-03-12T18:35:18.248Z,46.08
2023-03-12T18:39:24.522Z,42.90
2023-03-12T18:43:28.892Z,50.90
2023-03-12T18:47:39.459Z,64.77
2023-03-12T18:51:42.963Z,58.45
2023-03-12T18:55:55.308Z,51.63
2023-03-12T18:59:59.454Z,50.53
2023-03-12T19:04:03.913Z,50.17
2023-03-12T19:08:08.815Z,45.70
2023-03-12T19:12:12.018Z,53.07
2023-03-12T19:16:22.300Z,53.63
2023-03-12T19:20:29.780Z,56.97
2023-03-12T19:24:33.219Z,50.73
2023-03-12T19:28:36.929Z,59.70
2023-03-12T19:32:44.154Z,52.22
2023-03-12T19:36:49.162Z,61.63
2023-03-12T19:40:55.289Z,51.28
2023-03-12T19:44:58.634Z,53.30
2023-03-12T19:49:01.763Z,61.77
2023-03-12T19:53:09.605Z,57.23
2023-03-12T19:57:13.016Z,54.30
2023-03-12T20:01:18.409Z,62.67
2023-03-12T20:05:21.680Z,60.10
2023-03-12T20:09:26.270Z,66.33
2023-03-12T20:13:31.012Z,72.87
2023-03-12T20:17:41.882Z,89.00
2023-03-12T20:21:48.339Z,79.13
2023-03-12T20:25:57.667Z,74.10
2023-03-12T20:30:03.790Z,88.37
2023-03-12T20:34:09.181Z,91.37
2023-03-12T20:38:21.306Z,65.00
2023-03-12T20:42:26.354Z,98.07
2023-03-12T20:46:32.197Z,213.20
2023-03-12T20:50:38.959Z,80.60
2023-03-12T20:54:44.326Z,73.10
2023-03-12T20:58:49.114Z,65.70
2023-03-12T21:02:52.681Z,68.43
2023-03-12T21:06:56.394Z,69.93
2023-03-12T21:10:59.463Z,76.40
2023-03-12T21:15:07.460Z,88.60
2023-03-12T21:19:10.484Z,68.37
2023-03-12T21:23:13.614Z,67.17
2023-03-12T21:27:17.071Z,73.53
2023-03-12T21:31:24.568Z,69.83
2023-03-12T21:35:29.777Z,68.73
2023-03-12T21:39:32.928Z,72.20
2023-03-12T21:43:39.314Z,59.67
2023-03-12T21:47:44.060Z,59.77
2023-03-12T21:51:47.125Z,60.25
2023-03-12T21:55:57.799Z,67.07
2023-03-12T22:00:02.667Z,55.97
2023-03-12T22:04:10.737Z,51.73
2023-03-12T22:08:14.274Z,53.63
2023-03-12T22:12:17.306Z,59.37
2023-03-12T22:16:23.683Z,67.10
2023-03-12T22:20:28.082Z,56.27
2023-03-12T22:24:34.022Z,54.13
2023-03-12T22:28:37.890Z,53.13
2023-03-12T22:32:41.276Z,65.03
2023-03-12T22:36:47.758Z,61.50
2023-03-12T22:40:55.492Z,62.67
2023-03-12T22:45:04.974Z,60.50
2023-03-12T22:49:10.408Z,52.30
2023-03-12T22:53:14.834Z,51.57
2023-03-12T22:57:22.826Z,42.23
2023-03-12T23:01:27.701Z,31.67
2023-03-12T23:05:32.573Z,20.47
2023-03-12T23:09:39.694Z,22.57
2023-03-12T23:13:45.608Z,22.77
2023-03-12T23:17:50.433Z,17.23
2023-03-12T23:21:53.515Z,18.90
2023-03-12T23:25:59.723Z,21.55
2023-03-12T23:30:04.427Z,16.52
2023-03-12T23:34:10.420Z,13.05
2023-03-12T23:38:19.610Z,12.48
2023-03-12T23:42:24.276Z,12.57
2023-03-12T23:46:28.327Z,13.70
2023-03-12T23:50:33.972Z,17.50
2023-03-12T23:54:37.043Z,12.27
2023-03-12T23:58:44.868Z,12.10
